Time;durP1;ratioP1;P1;durP2;ratioP2;P2;SDS_P1;SDS_P2;PMS_P1;PMS_P2;Temp;Humidity;BMP_temperature;BMP_pressure;BME280_temperature;BME280_humidity;BME280_pressure;Samples;Min_cycle;Max_cycle;Signal;HPM_P1;HPM_P2
2021/06/08 00:00:08;;;;;;;120.13;56.17;;;;;;;13.98;100.00;96061.56;5011898;28;20210;-74
2021/06/08 00:02:33;;;;;;;84.67;50.50;;;;;;;13.99;100.00;96065.81;5009578;28;20237;-75
2021/06/08 00:04:59;;;;;;;100.47;49.97;;;;;;;14.00;100.00;96061.41;5012721;28;20372;-75
2021/06/08 00:07:24;;;;;;;106.80;51.60;;;;;;;14.02;100.00;96064.69;5012937;28;20186;-75
2021/06/08 00:09:49;;;;;;;136.30;53.47;;;;;;;14.01;100.00;96058.66;5013051;28;20187;-75
2021/06/08 00:12:15;;;;;;;82.70;52.63;;;;;;;14.01;100.00;96068.28;5010598;28;20651;-75
2021/06/08 00:14:40;;;;;;;139.50;51.77;;;;;;;14.02;100.00;96060.28;5010710;28;20211;-75
2021/06/08 00:17:05;;;;;;;191.87;56.37;;;;;;;13.99;100.00;96065.81;4995064;28;20680;-75
2021/06/08 00:19:31;;;;;;;80.23;50.17;;;;;;;13.99;100.00;96071.03;5012747;28;20725;-75
2021/06/08 00:21:56;;;;;;;124.77;53.97;;;;;;;13.98;100.00;96069.41;5011224;28;20327;-75
2021/06/08 00:24:21;;;;;;;171.23;59.40;;;;;;;13.99;100.00;96063.22;5009785;28;20622;-75
2021/06/08 00:26:47;;;;;;;85.80;53.63;;;;;;;13.98;100.00;96064.19;5011321;28;20651;-75
2021/06/08 00:29:12;;;;;;;248.43;61.73;;;;;;;13.98;100.00;96071.22;5012474;28;20718;-75
2021/06/08 00:31:37;;;;;;;103.73;54.10;;;;;;;13.98;100.00;96069.41;5011646;28;20256;-75
2021/06/08 00:34:02;;;;;;;113.93;57.27;;;;;;;14.00;100.00;96070.06;5010013;28;20199;-76
2021/06/08 00:36:28;;;;;;;149.50;57.50;;;;;;;14.01;100.00;96068.28;5012261;28;20210;-76
2021/06/08 00:38:53;;;;;;;222.63;62.40;;;;;;;13.99;100.00;96060.59;5012034;28;20184;-75
2021/06/08 00:41:30;;;;;;;106.30;52.33;;;;;;;13.99;100.00;96062.41;5012196;28;20197;-75
2021/06/08 00:44:00;;;;;;;144.40;57.85;;;;;;;13.96;100.00;96065.28;4991372;28;20241;-75
2021/06/08 00:46:26;;;;;;;161.40;60.03;;;;;;;13.95;100.00;96067.09;5003458;28;20175;-75
2021/06/08 00:48:51;;;;;;;648.87;72.30;;;;;;;13.97;100.00;96062.56;5001992;28;20554;-75
2021/06/08 00:51:16;;;;;;;138.50;56.70;;;;;;;13.97;100.00;96059.94;4992440;28;20176;-75
2021/06/08 00:53:41;;;;;;;192.17;61.23;;;;;;;13.95;100.00;96064.47;4991277;28;20194;-74
2021/06/08 00:56:07;;;;;;;151.23;60.47;;;;;;;13.94;100.00;96062.84;5006753;28;20218;-75
2021/06/08 00:58:32;;;;;;;92.17;56.13;;;;;;;13.96;100.00;96066.16;5010727;28;20198;-75
2021/06/08 01:00:57;;;;;;;401.97;72.67;;;;;;;13.94;100.00;96067.25;5010650;28;20175;-75
2021/06/08 01:03:23;;;;;;;375.60;67.20;;;;;;;13.93;100.00;96069.03;5011933;28;20180;-76
2021/06/08 01:05:48;;;;;;;114.73;58.83;;;;;;;13.95;100.00;96066.28;4993057;28;20293;-75
2021/06/08 01:08:13;;;;;;;174.27;62.40;;;;;;;13.95;100.00;96066.28;5011859;28;20190;-75
2021/06/08 01:10:39;;;;;;;151.43;53.67;;;;;;;13.99;100.00;96057.16;5011693;28;20179;-75
2021/06/08 01:13:04;;;;;;;385.80;58.70;;;;;;;14.00;100.00;96059.63;5012034;28;20183;-75
2021/06/08 01:15:29;;;;;;;713.43;78.50;;;;;;;13.95;100.00;96058.44;5011721;28;20230;-75
2021/06/08 01:17:55;;;;;;;144.20;55.83;;;;;;;13.96;100.00;96057.47;5010577;28;20281;-75
2021/06/08 01:20:20;;;;;;;320.27;64.63;;;;;;;13.94;100.00;96057.63;5010432;28;20195;-75
2021/06/08 01:22:46;;;;;;;321.40;61.90;;;;;;;13.95;100.00;96061.06;5010554;28;20221;-75
2021/06/08 01:25:11;;;;;;;96.38;53.85;;;;;;;13.95;100.00;96059.25;5011757;28;20206;-74
2021/06/08 01:27:37;;;;;;;220.13;56.53;;;;;;;13.94;100.00;96062.84;5009351;28;20179;-74
2021/06/08 01:30:04;;;;;;;140.57;55.93;;;;;;;13.94;100.00;96056.81;4993796;28;20256;-75
2021/06/08 01:32:30;;;;;;;117.93;56.53;;;;;;;13.94;100.00;96056.81;5010204;28;20249;-75
2021/06/08 01:34:55;;;;;;;97.50;54.33;;;;;;;13.92;100.00;96059.56;5010369;28;20199;-75
2021/06/08 01:37:22;;;;;;;95.87;49.27;;;;;;;13.94;100.00;96057.63;5009318;28;20742;-75
2021/06/08 01:39:47;;;;;;;108.37;53.23;;;;;;;13.94;100.00;96059.41;5009919;28;20191;-74
2021/06/08 01:42:14;;;;;;;129.90;50.63;;;;;;;13.95;100.00;96066.28;5009049;28;20197;-75
2021/06/08 01:44:42;;;;;;;407.87;67.77;;;;;;;13.94;100.00;96062.03;4996199;28;20203;-75
2021/06/08 01:47:07;;;;;;;333.47;67.20;;;;;;;13.92;100.00;96064.81;5015682;28;20639;-75
2021/06/08 01:49:33;;;;;;;100.40;53.87;;;;;;;13.94;100.00;96060.22;5013262;28;20253;-75
2021/06/08 01:52:00;;;;;;;140.40;57.53;;;;;;;13.93;100.00;96060.41;5014040;28;20183;-75
2021/06/08 01:55:00;;;;;;;278.23;67.00;;;;;;;13.94;100.00;96064.63;5015402;28;20199;-75
2021/06/08 01:57:40;;;;;;;96.13;49.00;;;;;;;13.95;100.00;96056.66;5012217;28;20286;-75
2021/06/08 02:00:12;;;;;;;193.50;55.97;;;;;;;13.94;100.00;96055.00;5012868;28;20199;-75
2021/06/08 02:03:07;;;;;;;135.83;53.63;;;;;;;13.94;100.00;96052.41;5013879;28;20214;-75
2021/06/08 02:05:42;;;;;;;115.73;52.20;;;;;;;13.94;100.00;96048.97;4991136;28;20301;-75
2021/06/08 02:08:31;;;;;;;300.53;59.37;;;;;;;13.93;100.00;96044.72;5014029;28;20202;-75
2021/06/08 02:11:00;;;;;;;354.17;62.00;;;;;;;13.90;100.00;96045.88;4995916;28;20257;-74
2021/06/08 02:13:52;;;;;;;122.87;54.23;;;;;;;13.92;100.00;96053.53;5013742;28;20266;-75
2021/06/08 02:16:22;;;;;;;168.63;57.43;;;;;;;13.89;100.00;96039.84;5015105;28;20241;-75
2021/06/08 02:18:49;;;;;;;265.67;58.30;;;;;;;13.94;100.00;96044.56;4997414;28;20237;-75
2021/06/08 02:21:17;;;;;;;117.43;57.67;;;;;;;13.93;100.00;96039.50;4995899;28;20252;-75
2021/06/08 02:23:43;;;;;;;132.27;58.93;;;;;;;13.91;100.00;96041.47;5013582;28;20352;-75
2021/06/08 02:26:09;;;;;;;96.03;52.03;;;;;;;13.92;100.00;96048.31;5013863;28;20246;-76
2021/06/08 02:28:37;;;;;;;154.07;55.20;;;;;;;13.93;100.00;96050.78;5013670;28;20198;-75
2021/06/08 02:31:04;;;;;;;102.83;52.67;;;;;;;13.91;100.00;96052.72;5012091;28;20210;-75
2021/06/08 02:33:30;;;;;;;92.10;49.70;;;;;;;13.94;100.00;96052.41;5013471;28;20179;-75
2021/06/08 02:35:56;;;;;;;86.77;50.37;;;;;;;13.94;100.00;96056.81;5013456;28;20199;-75
2021/06/08 02:38:22;;;;;;;127.57;54.07;;;;;;;13.91;100.00;96057.13;5012983;28;20202;-75
2021/06/08 02:40:47;;;;;;;94.60;53.57;;;;;;;13.92;100.00;96054.34;5013123;28;20332;-75
2021/06/08 02:43:13;;;;;;;95.17;52.53;;;;;;;13.92;100.00;96053.53;4995598;28;20194;-75
2021/06/08 02:45:40;;;;;;;94.70;51.60;;;;;;;13.92;100.00;96053.53;5013233;28;20740;-75
2021/06/08 02:48:05;;;;;;;107.47;53.17;;;;;;;13.92;100.00;96050.94;5013282;28;20171;-75
2021/06/08 02:50:30;;;;;;;113.93;52.03;;;;;;;13.95;100.00;96048.00;5013003;28;20698;-75
2021/06/08 02:52:57;;;;;;;503.87;65.23;;;;;;;13.94;100.00;96051.59;4995450;28;20191;-75
2021/06/08 02:55:23;;;;;;;94.00;49.13;;;;;;;13.91;100.00;96044.06;5037223;28;20203;-75
2021/06/08 02:57:51;;;;;;;150.67;50.17;;;;;;;13.89;100.00;96047.66;5012978;28;20708;-75
2021/06/08 03:00:17;;;;;;;300.10;59.57;;;;;;;13.87;100.00;96049.63;5014224;28;20179;-74
2021/06/08 03:02:45;;;;;;;127.00;50.53;;;;;;;13.87;100.00;96047.00;5009413;28;20199;-75
2021/06/08 03:05:17;;;;;;;105.43;50.33;;;;;;;13.87;100.00;96051.41;5011096;28;20276;-74
2021/06/08 03:07:45;;;;;;;181.57;53.77;;;;;;;13.88;100.00;96047.81;4996601;28;20183;-75
2021/06/08 03:10:12;;;;;;;242.90;55.63;;;;;;;13.85;100.00;96051.53;5012838;28;20179;-75
2021/06/08 03:12:43;;;;;;;249.03;53.90;;;;;;;13.89;100.00;96062.50;4996245;28;20179;-75
2021/06/08 03:15:08;;;;;;;270.67;56.80;;;;;;;13.83;100.00;96061.31;4995241;28;20214;-75
2021/06/08 03:17:36;;;;;;;152.63;54.73;;;;;;;13.83;100.00;96061.31;5012476;28;20195;-75
2021/06/08 03:20:10;;;;;;;280.53;58.33;;;;;;;13.83;100.00;96060.50;5011407;28;20195;-75
2021/06/08 03:22:36;;;;;;;350.47;60.40;;;;;;;13.85;100.00;96064.59;5012336;28;20646;-75
2021/06/08 03:25:01;;;;;;;142.93;53.73;;;;;;;13.83;100.00;96069.16;4995097;28;20234;-75
2021/06/08 03:27:28;;;;;;;88.73;50.60;;;;;;;13.84;100.00;96064.75;4996025;28;20175;-74
2021/06/08 03:29:54;;;;;;;142.90;54.03;;;;;;;13.84;100.00;96062.16;5013609;28;20700;-75
2021/06/08 03:32:19;;;;;;;103.00;44.50;;;;;;;13.88;100.00;96068.72;5012020;28;20183;-74
2021/06/08 03:34:45;;;;;;;92.00;50.43;;;;;;;13.87;100.00;96067.91;5008211;28;20206;-75
2021/06/08 03:37:11;;;;;;;156.83;54.83;;;;;;;13.85;100.00;96059.38;4995695;28;20277;-75
2021/06/08 03:39:37;;;;;;;451.13;64.60;;;;;;;13.82;100.00;96062.31;5011919;28;20186;-75
2021/06/08 03:42:03;;;;;;;374.50;60.27;;;;;;;13.85;100.00;96063.78;5011852;28;20171;-75
2021/06/08 03:44:29;;;;;;;393.50;63.17;;;;;;;13.82;100.00;96067.53;5013618;28;20207;-75
2021/06/08 03:46:54;;;;;;;124.77;51.47;;;;;;;13.84;100.00;96064.75;5011074;28;20601;-75
2021/06/08 03:49:21;;;;;;;126.47;48.87;;;;;;;13.86;100.00;96071.44;5011981;28;20222;-74
2021/06/08 03:51:52;;;;;;;261.77;58.00;;;;;;;13.84;100.00;96068.19;5011962;28;20175;-75
2021/06/08 03:54:17;;;;;;;280.10;59.97;;;;;;;13.86;100.00;96068.03;5012098;28;20626;-75
2021/06/08 03:56:45;;;;;;;197.87;54.80;;;;;;;13.87;100.00;96069.69;5010158;28;20294;-75
2021/06/08 03:59:11;;;;;;;221.50;57.30;;;;;;;13.87;100.00;96070.50;4995508;28;20211;-74
2021/06/08 04:01:37;;;;;;;333.70;62.27;;;;;;;13.88;100.00;96074.75;5012963;28;20605;-75
2021/06/08 04:04:04;;;;;;;146.53;58.70;;;;;;;13.90;100.00;96069.38;5013046;28;20679;-75
2021/06/08 04:06:30;;;;;;;124.33;57.83;;;;;;;13.91;100.00;96078.00;5010060;28;20226;-74
2021/06/08 04:08:55;;;;;;;133.37;57.43;;;;;;;13.93;100.00;96076.06;4993736;28;20187;-75
2021/06/08 04:11:21;;;;;;;342.90;60.27;;;;;;;13.93;100.00;96076.06;5011375;28;20206;-75
2021/06/08 04:13:46;;;;;;;108.23;47.80;;;;;;;13.95;100.00;96080.16;5012877;28;20518;-75
2021/06/08 04:16:12;;;;;;;151.17;53.50;;;;;;;13.97;100.00;96080.00;5012694;28;20269;-75
2021/06/08 04:18:41;;;;;;;108.07;49.13;;;;;;;13.98;100.00;96079.84;5009316;28;20195;-75
2021/06/08 04:21:06;;;;;;;513.47;64.37;;;;;;;13.95;100.00;96081.94;5011237;28;20202;-75
2021/06/08 04:23:32;;;;;;;369.37;58.33;;;;;;;13.94;100.00;96078.50;5012681;28;20213;-75
2021/06/08 04:25:58;;;;;;;225.13;50.70;;;;;;;13.97;100.00;96072.19;5011369;28;20202;-75
2021/06/08 04:28:25;;;;;;;433.83;61.20;;;;;;;13.92;100.00;96080.47;5010371;28;20566;-75
2021/06/08 04:30:52;;;;;;;94.97;47.37;;;;;;;13.96;100.00;96080.97;4994443;28;20190;-75
2021/06/08 04:33:28;;;;;;;124.57;48.83;;;;;;;13.98;100.00;96079.03;5011376;28;20171;-75
2021/06/08 04:35:54;;;;;;;278.23;52.40;;;;;;;13.98;100.00;96081.66;5011183;28;20194;-75
2021/06/08 04:38:20;;;;;;;389.53;57.37;;;;;;;13.98;100.00;96074.63;5010677;28;20179;-73
2021/06/08 04:40:47;;;;;;;170.57;49.03;;;;;;;14.00;100.00;96077.09;5009541;28;20183;-75
2021/06/08 04:43:13;;;;;;;484.53;60.43;;;;;;;13.97;100.00;96082.63;5012378;28;20189;-75
2021/06/08 04:45:38;;;;;;;515.13;62.27;;;;;;;13.96;100.00;96076.59;5011110;28;20290;-75
2021/06/08 04:48:04;;;;;;;263.27;50.80;;;;;;;14.00;100.00;96079.69;5011224;28;20246;-75
2021/06/08 04:50:30;;;;;;;404.07;63.03;;;;;;;13.95;100.00;96074.91;5009461;28;20183;-75
2021/06/08 04:52:58;;;;;;;774.17;77.27;;;;;;;13.89;100.00;96076.38;5010323;28;20552;-77
2021/06/08 04:55:24;;;;;;;343.77;57.87;;;;;;;13.93;100.00;96073.44;4994610;28;20203;-77
2021/06/08 04:57:53;;;;;;;153.47;44.87;;;;;;;13.99;100.00;96078.06;5011946;28;20202;-77
2021/06/08 05:00:23;;;;;;;636.10;65.27;;;;;;;13.92;100.00;96084.88;5009538;28;20191;-77
2021/06/08 05:02:53;;;;;;;856.90;78.13;;;;;;;13.87;100.00;96082.75;5009645;28;20202;-76
2021/06/08 05:05:24;;;;;;;586.93;65.50;;;;;;;13.88;100.00;96082.56;5010680;28;20663;-75
2021/06/08 05:07:56;;;;;;;688.43;72.83;;;;;;;13.88;100.00;96085.19;5011211;28;20199;-75
2021/06/08 05:10:23;;;;;;;689.97;72.43;;;;;;;13.91;100.00;96097.09;5005938;28;20187;-74
2021/06/08 05:12:49;;;;;;;179.63;45.10;;;;;;;13.94;100.00;96090.75;5007488;28;20194;-76
2021/06/08 05:15:16;;;;;;;386.93;57.63;;;;;;;13.98;100.00;96097.31;5010370;28;20249;-76
2021/06/08 05:17:42;;;;;;;714.87;70.20;;;;;;;13.97;100.00;96099.09;5009734;28;20291;-76
2021/06/08 05:20:09;;;;;;;131.20;46.37;;;;;;;14.03;100.00;96097.66;4993799;28;20207;-76
2021/06/08 05:22:34;;;;;;;177.87;44.60;;;;;;;14.04;100.00;96094.88;5008888;28;20265;-75
2021/06/08 05:25:00;;;;;;;233.87;49.50;;;;;;;14.06;100.00;96103.41;5007411;28;20242;-75
2021/06/08 05:27:25;;;;;;;243.97;45.77;;;;;;;14.07;100.00;96101.59;5009470;28;20171;-75
2021/06/08 05:29:52;;;;;;;308.37;52.40;;;;;;;14.11;100.00;96095.91;4988570;28;20189;-74
2021/06/08 05:32:18;;;;;;;190.97;46.97;;;;;;;14.15;100.00;96106.88;5004704;28;20272;-75
2021/06/08 05:34:44;;;;;;;380.93;50.87;;;;;;;14.16;100.00;96111.94;5009863;28;20203;-76
2021/06/08 05:37:11;;;;;;;532.20;61.83;;;;;;;14.09;100.00;96104.88;5010329;28;20199;-76
2021/06/08 05:39:38;;;;;;;444.00;53.93;;;;;;;14.08;100.00;96111.91;5010430;28;20193;-76
2021/06/08 05:42:06;;;;;;;592.27;60.63;;;;;;;14.06;100.00;96116.47;5010128;28;20693;-75
2021/06/08 05:44:34;;;;;;;375.03;51.63;;;;;;;14.06;100.00;96107.81;5007788;28;20203;-75
2021/06/08 05:46:59;;;;;;;301.37;50.67;;;;;;;14.14;100.00;96110.47;5010302;28;20175;-76
2021/06/08 05:49:24;;;;;;;243.87;47.90;;;;;;;14.17;100.00;96112.75;5010393;28;20620;-76
2021/06/08 05:51:50;;;;;;;591.30;61.20;;;;;;;14.20;100.00;96117.66;5010143;28;20179;-76
2021/06/08 05:54:16;;;;;;;651.57;61.67;;;;;;;14.23;100.00;96119.16;5008913;28;20214;-76
2021/06/08 05:56:41;;;;;;;763.23;68.73;;;;;;;14.17;100.00;96113.56;5010134;28;20199;-76
2021/06/08 05:59:07;;;;;;;732.90;74.13;;;;;;;14.16;100.00;96114.53;5010043;28;20661;-76
2021/06/08 06:01:32;;;;;;;104.67;41.30;;;;;;;14.31;100.00;96117.41;4993804;28;20187;-77
2021/06/08 06:03:58;;;;;;;297.67;51.33;;;;;;;14.38;100.00;96120.19;5008761;28;20275;-77
2021/06/08 06:06:24;;;;;;;203.60;48.40;;;;;;;14.38;100.00;96115.78;5010145;28;20207;-77
2021/06/08 06:08:49;;;;;;;269.93;50.97;;;;;;;14.37;100.00;96121.16;5010443;28;20274;-75
2021/06/08 06:11:16;;;;;;;194.80;46.70;;;;;;;14.40;100.00;96119.06;5009408;28;20179;-75
2021/06/08 06:13:47;;;;;;;102.13;39.85;;;;;;;14.52;100.00;96124.84;5010786;28;20241;-75
2021/06/08 06:16:12;;;;;;;218.20;48.70;;;;;;;14.45;99.51;96121.22;5007799;28;20188;-75
2021/06/08 06:18:38;;;;;;;227.00;49.27;;;;;;;14.54;99.60;96116.84;5010084;28;20190;-76
2021/06/08 06:21:04;;;;;;;271.17;49.30;;;;;;;14.48;99.46;96122.69;5011191;28;20278;-76
2021/06/08 06:23:30;;;;;;;137.20;45.17;;;;;;;14.49;99.41;96125.19;5010436;28;20226;-76
2021/06/08 06:25:57;;;;;;;204.80;49.03;;;;;;;14.53;99.39;96125.69;5019717;28;20211;-76
2021/06/08 06:28:22;;;;;;;234.83;49.83;;;;;;;14.43;99.69;96120.53;5001485;28;20252;-76
2021/06/08 06:30:50;;;;;;;176.30;45.40;;;;;;;14.54;99.35;96122.09;5012038;28;20703;-77
2021/06/08 06:33:15;;;;;;;338.93;51.20;;;;;;;14.49;99.43;96119.09;5013596;28;20229;-77
2021/06/08 06:35:40;;;;;;;255.97;50.57;;;;;;;14.52;99.27;96124.03;5012698;28;20561;-75
2021/06/08 06:38:08;;;;;;;96.37;44.37;;;;;;;14.62;99.44;96125.53;4996136;28;20211;-77
2021/06/08 06:40:34;;;;;;;70.93;38.93;;;;;;;14.73;99.07;96120.00;5013388;28;20265;-75
2021/06/08 06:43:03;;;;;;;179.80;49.97;;;;;;;14.77;98.36;96127.56;5013225;28;20186;-75
2021/06/08 06:45:29;;;;;;;204.80;48.00;;;;;;;14.70;98.28;96132.59;5013529;28;20574;-76
2021/06/08 06:48:01;;;;;;;209.80;45.40;;;;;;;14.66;98.12;96133.88;4996932;28;20191;-76
2021/06/08 06:50:29;;;;;;;511.43;55.00;;;;;;;14.66;98.27;96139.91;4999211;28;20270;-76
2021/06/08 06:52:57;;;;;;;139.55;42.80;;;;;;;14.63;97.63;96139.44;5013623;28;20233;-77
2021/06/08 06:55:24;;;;;;;173.23;44.63;;;;;;;14.72;97.82;96141.09;5013337;28;20205;-76
2021/06/08 06:57:50;;;;;;;232.77;48.75;;;;;;;14.73;97.71;96140.13;4993193;28;20239;-75
2021/06/08 07:00:16;;;;;;;144.57;46.30;;;;;;;14.83;97.79;96132.94;5012892;28;20272;-76
2021/06/08 07:02:46;;;;;;;623.53;61.65;;;;;;;14.70;97.32;96148.28;5013041;28;20643;-76
2021/06/08 07:05:13;;;;;;;279.73;46.80;;;;;;;14.80;97.03;96143.72;5011993;28;20195;-76
2021/06/08 07:07:39;;;;;;;241.48;48.25;;;;;;;14.82;97.15;96136.53;5013183;28;20175;-75
2021/06/08 07:10:06;;;;;;;411.10;57.60;;;;;;;14.67;97.26;96143.38;5011726;28;20241;-77
2021/06/08 07:12:31;;;;;;;283.20;51.90;;;;;;;14.77;97.48;96138.84;5012562;28;20183;-76
2021/06/08 07:14:57;;;;;;;107.70;45.00;;;;;;;14.87;97.34;96142.13;5013067;28;20358;-76
2021/06/08 07:17:24;;;;;;;389.93;54.90;;;;;;;14.71;97.27;96135.03;5015545;28;20210;-75
2021/06/08 07:19:52;;;;;;;169.23;48.53;;;;;;;14.84;97.40;96137.22;5019855;28;20191;-77
2021/06/08 07:22:18;;;;;;;216.43;48.83;;;;;;;14.92;97.04;96136.41;5013384;28;20688;-76
2021/06/08 07:24:43;;;;;;;265.90;52.67;;;;;;;14.86;96.67;96140.50;5013132;28;20211;-76
2021/06/08 07:27:13;;;;;;;189.05;47.15;;;;;;;14.90;96.73;96138.38;4998259;28;20210;-77
2021/06/08 07:29:42;;;;;;;126.57;50.70;;;;;;;14.88;96.98;96143.75;5027429;28;20221;-75
2021/06/08 07:32:14;;;;;;;79.38;46.45;;;;;;;14.97;96.59;96134.94;5013552;28;20278;-76
2021/06/08 07:34:46;;;;;;;61.93;44.00;;;;;;;15.01;96.25;96144.09;5030519;28;20289;-75
2021/06/08 07:37:19;;;;;;;65.63;47.60;;;;;;;14.84;96.00;96139.84;5014014;28;20203;-76
2021/06/08 07:39:49;;;;;;;65.13;46.03;;;;;;;14.85;95.59;96141.47;5013101;28;20215;-76
2021/06/08 07:42:45;;;;;;;61.27;45.27;;;;;;;14.86;96.01;96143.09;5013223;28;20270;-76
2021/06/08 07:45:13;;;;;;;75.55;48.03;;;;;;;14.69;96.02;96144.84;5012114;28;20293;-76
2021/06/08 07:47:39;;;;;;;66.85;46.33;;;;;;;14.91;95.63;96143.44;5012167;28;20179;-76
2021/06/08 07:50:07;;;;;;;58.00;45.37;;;;;;;14.97;93.76;96140.19;5011586;28;20693;-75
2021/06/08 07:52:33;;;;;;;55.70;43.83;;;;;;;15.14;93.70;96142.84;4993078;28;20475;-75
2021/06/08 07:54:59;;;;;;;59.53;44.50;;;;;;;15.16;93.10;96146.91;5011976;28;20211;-77
2021/06/08 07:57:24;;;;;;;59.83;43.55;;;;;;;15.20;93.35;96142.19;5009627;28;20549;-76
2021/06/08 07:59:50;;;;;;;60.08;44.35;;;;;;;15.22;93.43;96143.66;5011572;28;20707;-76
2021/06/08 08:02:20;;;;;;;59.53;45.10;;;;;;;15.20;92.49;96142.19;4993509;28;20183;-77
2021/06/08 08:04:50;;;;;;;59.28;44.67;;;;;;;15.23;92.75;96145.31;5012112;28;20286;-76
2021/06/08 08:07:26;;;;;;;56.30;44.50;;;;;;;15.44;92.19;96144.00;5011835;28;20210;-76
2021/06/08 08:09:53;;;;;;;55.33;43.03;;;;;;;15.51;92.34;96143.19;5011786;28;20646;-76
2021/06/08 08:12:18;;;;;;;52.72;42.83;;;;;;;15.57;91.08;96150.41;4993953;28;20218;-76
2021/06/08 08:14:46;;;;;;;53.70;42.65;;;;;;;15.58;91.15;96149.41;5011348;28;20215;-76
2021/06/08 08:17:12;;;;;;;58.38;44.80;;;;;;;15.67;90.87;96154.69;5011772;28;20207;-75
2021/06/08 08:19:39;;;;;;;56.00;44.75;;;;;;;15.65;90.81;96154.03;4995328;28;20219;-76
2021/06/08 08:22:05;;;;;;;56.50;44.22;;;;;;;15.63;90.39;96153.34;5012805;28;20175;-76
2021/06/08 08:24:31;;;;;;;55.78;44.30;;;;;;;15.63;90.80;96153.34;5006920;28;20203;-76
2021/06/08 08:26:56;;;;;;;55.67;43.40;;;;;;;15.48;91.49;96150.56;5011284;28;20182;-75
2021/06/08 08:29:21;;;;;;;54.03;43.92;;;;;;;15.40;91.17;96156.59;5012498;28;20214;-75
2021/06/08 08:31:47;;;;;;;51.28;43.83;;;;;;;15.32;91.60;96153.97;5012413;28;20570;-75
2021/06/08 08:34:13;;;;;;;55.88;45.05;;;;;;;15.32;92.02;96153.97;4994018;28;20762;-76
2021/06/08 08:36:39;;;;;;;56.78;45.50;;;;;;;15.32;91.80;96153.97;5011025;28;20278;-76
2021/06/08 08:39:09;;;;;;;56.35;45.00;;;;;;;15.29;92.09;96157.75;5012743;28;20178;-76
2021/06/08 08:41:52;;;;;;;65.47;47.70;;;;;;;15.25;91.75;96152.97;4965086;28;20205;-76
2021/06/08 08:44:17;;;;;;;55.95;44.45;;;;;;;15.38;91.54;96157.75;5009727;28;20219;-76
2021/06/08 08:46:43;;;;;;;58.80;47.05;;;;;;;15.47;91.22;96157.59;5010911;28;20681;-76
2021/06/08 08:49:08;;;;;;;56.05;47.55;;;;;;;15.57;90.80;96153.00;5010937;28;20187;-76
2021/06/08 08:51:37;;;;;;;56.28;46.60;;;;;;;15.68;90.66;96158.94;5010656;28;20651;-76
2021/06/08 08:54:03;;;;;;;59.42;49.25;;;;;;;15.59;91.17;96152.84;4994402;28;20376;-75
2021/06/08 08:56:38;;;;;;;59.22;48.22;;;;;;;15.65;90.30;96148.78;5009712;28;20215;-76
2021/06/08 08:59:04;;;;;;;55.25;46.33;;;;;;;15.58;91.08;96153.84;4994477;28;20186;-75
2021/06/08 09:01:30;;;;;;;57.75;46.80;;;;;;;15.46;91.00;96150.72;5011930;28;20187;-76
2021/06/08 09:03:56;;;;;;;60.70;46.85;;;;;;;15.58;90.97;96161.69;4994539;28;20179;-75
2021/06/08 09:06:21;;;;;;;58.92;45.40;;;;;;;15.65;90.91;96159.28;5009944;28;20761;-77
2021/06/08 09:08:47;;;;;;;60.78;46.97;;;;;;;15.61;91.24;96155.31;5010873;28;20266;-76
2021/06/08 09:11:12;;;;;;;58.72;46.17;;;;;;;15.56;90.76;96159.22;5010938;28;20187;-75
2021/06/08 09:13:39;;;;;;;60.80;46.67;;;;;;;15.70;90.27;96156.97;5011136;28;20226;-76
2021/06/08 09:16:08;;;;;;;55.22;46.30;;;;;;;15.77;89.73;96158.75;5009618;28;20203;-76
2021/06/08 09:18:33;;;;;;;54.65;45.10;;;;;;;15.95;89.45;96155.97;5004359;28;20191;-76
2021/06/08 09:21:12;;;;;;;56.63;47.33;;;;;;;15.95;88.70;96161.19;4994140;28;20183;-75
2021/06/08 09:23:37;;;;;;;49.58;44.17;;;;;;;15.95;88.79;96163.81;5010758;28;20662;-76
2021/06/08 09:26:02;;;;;;;52.40;45.05;;;;;;;16.00;88.94;96158.09;5012034;28;20210;-75
2021/06/08 09:28:30;;;;;;;56.92;46.83;;;;;;;15.97;88.65;96161.03;5009733;28;20262;-76
2021/06/08 09:31:16;;;;;;;52.67;46.97;;;;;;;15.79;88.19;96163.81;5011274;28;20245;-75
2021/06/08 09:33:48;;;;;;;61.78;47.75;;;;;;;15.87;89.08;96171.69;5011535;28;20677;-75
2021/06/08 09:36:16;;;;;;;55.15;45.63;;;;;;;15.94;88.80;96167.41;5026699;28;20187;-75
2021/06/08 09:38:41;;;;;;;54.78;47.05;;;;;;;16.03;88.55;96166.44;4992846;28;20695;-76
2021/06/08 09:41:16;;;;;;;61.15;47.63;;;;;;;15.99;88.02;96167.75;5011307;28;20210;-74
2021/06/08 09:43:56;;;;;;;53.45;46.80;;;;;;;16.22;87.70;96174.91;5011604;28;20212;-75
2021/06/08 09:46:22;;;;;;;51.38;44.30;;;;;;;16.08;88.20;96172.00;5011712;28;20175;-75
2021/06/08 09:48:53;;;;;;;53.20;45.45;;;;;;;16.10;87.77;96177.06;5009415;28;20191;-76
2021/06/08 09:51:18;;;;;;;52.33;45.35;;;;;;;16.22;87.59;96182.75;5010264;28;20189;-76
2021/06/08 09:53:44;;;;;;;53.47;45.72;;;;;;;16.31;87.03;96181.75;5010376;28;20246;-76
2021/06/08 09:56:10;;;;;;;52.88;44.83;;;;;;;16.32;87.04;96180.78;5010295;28;20633;-77
2021/06/08 09:58:44;;;;;;;57.78;47.42;;;;;;;16.39;87.50;96181.75;5008854;28;20179;-75
2021/06/08 10:01:24;;;;;;;50.80;45.10;;;;;;;16.86;86.81;96186.19;5008041;28;20173;-75
2021/06/08 10:03:54;;;;;;;49.28;42.47;;;;;;;17.35;84.38;96184.13;5008601;28;20183;-75
2021/06/08 10:06:19;;;;;;;50.28;44.13;;;;;;;17.30;81.03;96183.81;5016115;28;20202;-76
2021/06/08 10:08:59;;;;;;;51.25;43.00;;;;;;;17.58;80.88;96193.81;5017614;28;20539;-76
2021/06/08 10:11:27;;;;;;;50.70;41.25;;;;;;;17.53;80.84;96191.72;4997592;28;20213;-76
2021/06/08 10:13:59;;;;;;;44.67;39.25;;;;;;;17.90;79.48;96200.66;5001800;28;20611;-75
2021/06/08 10:16:30;;;;;;;47.80;40.92;;;;;;;17.70;80.50;96195.09;5014445;28;20262;-77
2021/06/08 10:18:56;;;;;;;44.85;40.05;;;;;;;17.94;79.40;96194.91;5015287;28;20274;-74
2021/06/08 10:21:37;;;;;;;45.10;39.92;;;;;;;18.21;79.45;96188.25;5012565;28;20188;-76
2021/06/08 10:24:08;;;;;;;41.28;36.80;;;;;;;18.83;78.82;96185.28;5014899;28;20175;-75
2021/06/08 10:26:35;;;;;;;41.90;37.40;;;;;;;18.56;75.11;96191.97;5013963;28;20171;-76
2021/06/08 10:29:06;;;;;;;41.95;37.13;;;;;;;18.72;75.53;96185.72;5013797;28;20171;-75
2021/06/08 10:31:33;;;;;;;41.80;37.30;;;;;;;19.02;74.83;96185.72;5012458;28;20195;-76
2021/06/08 10:33:59;;;;;;;39.75;35.45;;;;;;;19.33;73.79;96175.72;5014198;28;20203;-77
2021/06/08 10:36:26;;;;;;;40.75;35.75;;;;;;;19.68;73.16;96187.25;5013424;28;20167;-76
2021/06/08 10:38:51;;;;;;;36.58;32.65;;;;;;;19.87;72.68;96182.34;5013343;28;20179;-75
2021/06/08 10:41:17;;;;;;;38.47;34.53;;;;;;;19.84;71.80;96180.09;5012312;28;20193;-75
2021/06/08 10:43:42;;;;;;;42.33;37.83;;;;;;;19.71;70.82;96183.44;4996714;28;20179;-75
2021/06/08 10:46:23;;;;;;;40.63;36.40;;;;;;;19.49;71.79;96175.47;5013189;28;20203;-75
2021/06/08 10:48:49;;;;;;;38.97;34.63;;;;;;;19.58;71.62;96175.41;5014523;28;20203;-75
2021/06/08 10:51:18;;;;;;;37.05;33.05;;;;;;;20.13;70.56;96169.38;5013175;28;20187;-76
2021/06/08 10:53:53;;;;;;;38.72;34.58;;;;;;;19.97;69.61;96173.13;5012100;28;20813;-75
2021/06/08 10:56:18;;;;;;;41.10;35.50;;;;;;;20.25;70.05;96181.03;5022331;28;20186;-75
2021/06/08 10:58:47;;;;;;;37.45;33.40;;;;;;;20.00;68.87;96164.81;5014229;28;20176;-77
2021/06/08 11:01:30;;;;;;;37.25;33.50;;;;;;;19.68;70.87;96170.63;5013814;28;20256;-75
2021/06/08 11:03:59;;;;;;;35.90;32.10;;;;;;;19.88;68.76;96171.63;5013007;28;20278;-75
2021/06/08 11:06:37;;;;;;;36.78;33.22;;;;;;;19.74;68.30;96170.69;5008643;28;20241;-75
2021/06/08 11:09:14;;;;;;;36.67;33.00;;;;;;;20.08;69.49;96171.78;5013630;28;20171;-75